Time;durP1;ratioP1;P1;durP2;ratioP2;P2;SDS_P1;SDS_P2;PMS_P1;PMS_P2;Temp;Humidity;BMP_temperature;BMP_pressure;BME280_temperature;BME280_humidity;BME280_pressure;Samples;Min_cycle;Max_cycle;Signal;HPM_P1;HPM_P2
2023/04/05 00:01:31;;;;;;;2.70;1.63;;;23.50;42.90;;;;;;5041903;28;20021;-62
2023/04/05 00:03:58;;;;;;;3.10;1.83;;;23.50;42.80;;;;;;5040714;28;20124;-61
2023/04/05 00:06:27;;;;;;;2.95;1.75;;;23.50;42.80;;;;;;5041231;28;20087;-63
2023/04/05 00:08:54;;;;;;;3.20;1.80;;;23.50;42.80;;;;;;5044005;28;20060;-61
2023/04/05 00:11:21;;;;;;;2.60;1.50;;;23.50;42.80;;;;;;5040669;28;20017;-62
2023/04/05 00:13:47;;;;;;;2.88;1.80;;;23.40;42.80;;;;;;5039884;28;20025;-62
2023/04/05 00:16:13;;;;;;;2.65;1.65;;;23.50;42.70;;;;;;5039789;28;20044;-62
2023/04/05 00:18:44;;;;;;;2.63;1.70;;;23.50;42.70;;;;;;5040946;28;20029;-62
2023/04/05 00:21:13;;;;;;;2.65;1.75;;;23.40;42.70;;;;;;5039200;28;20098;-62
2023/04/05 00:23:40;;;;;;;2.88;1.70;;;23.40;42.70;;;;;;5038689;28;20504;-62
2023/04/05 00:26:06;;;;;;;3.45;1.70;;;23.50;42.70;;;;;;5040817;28;20094;-63
2023/04/05 00:28:33;;;;;;;2.90;1.73;;;23.50;42.70;;;;;;5039522;28;20488;-62
2023/04/05 00:30:59;;;;;;;3.58;1.63;;;23.50;42.70;;;;;;5039246;28;20559;-62
2023/04/05 00:33:24;;;;;;;3.03;1.70;;;23.50;42.70;;;;;;5041169;28;20053;-61
2023/04/05 00:35:50;;;;;;;3.33;1.60;;;23.50;42.60;;;;;;5041966;28;20025;-62
2023/04/05 00:38:16;;;;;;;2.35;1.55;;;23.50;42.60;;;;;;5039365;28;20416;-62
2023/04/05 00:40:41;;;;;;;2.45;1.60;;;23.50;42.60;;;;;;5040209;28;20105;-62
2023/04/05 00:43:07;;;;;;;2.90;1.77;;;23.50;42.60;;;;;;5040067;28;20056;-62
2023/04/05 00:45:33;;;;;;;2.53;1.55;;;23.50;42.60;;;;;;5038946;28;20062;-62
2023/04/05 00:47:59;;;;;;;2.63;1.52;;;23.50;42.50;;;;;;5041665;28;20515;-62
2023/04/05 00:50:29;;;;;;;2.33;1.50;;;23.50;42.60;;;;;;5042096;28;20525;-63
2023/04/05 00:52:55;;;;;;;2.65;1.60;;;23.50;42.60;;;;;;5040778;28;20110;-62
2023/04/05 00:55:21;;;;;;;2.60;1.67;;;23.50;42.60;;;;;;5040916;28;20169;-61
2023/04/05 00:57:48;;;;;;;2.50;1.50;;;23.50;42.60;;;;;;5041140;28;20021;-62
2023/04/05 01:00:15;;;;;;;2.75;1.50;;;23.50;42.50;;;;;;5041087;28;20025;-62
2023/04/05 01:02:50;;;;;;;2.17;1.58;;;23.50;43.10;;;;;;5043660;28;20546;-62
2023/04/05 01:05:31;;;;;;;2.05;1.23;;;23.50;42.50;;;;;;5041770;28;20492;-62
2023/04/05 01:08:18;;;;;;;2.50;1.60;;;23.50;42.50;;;;;;5039898;28;20539;-62
2023/04/05 01:10:50;;;;;;;2.78;1.60;;;23.40;42.40;;;;;;5036355;28;20477;-62
2023/04/05 01:13:16;;;;;;;2.58;1.60;;;23.40;42.50;;;;;;5038786;28;20057;-62
2023/04/05 01:15:42;;;;;;;2.53;1.63;;;23.40;42.40;;;;;;5037670;28;20092;-62
2023/04/05 01:18:10;;;;;;;2.30;1.48;;;23.50;43.00;;;;;;5040640;28;20457;-61
2023/04/05 01:20:41;;;;;;;4.20;1.65;;;23.40;42.40;;;;;;5037661;28;20039;-62
2023/04/05 01:23:24;;;;;;;2.50;1.50;;;23.50;42.40;;;;;;5039964;28;20116;-63
2023/04/05 01:26:08;;;;;;;2.50;1.50;;;23.50;42.40;;;;;;5039934;28;20465;-61
2023/04/05 01:29:03;;;;;;;3.05;1.45;;;23.50;42.40;;;;;;5040825;28;20120;-62
2023/04/05 01:31:48;;;;;;;2.15;1.30;;;23.40;42.30;;;;;;5041049;28;20034;-62
2023/04/05 01:34:31;;;;;;;2.38;1.50;;;23.40;42.30;;;;;;5039805;28;20129;-63
2023/04/05 01:37:02;;;;;;;2.50;1.70;;;23.40;42.30;;;;;;5037795;28;20025;-62
2023/04/05 01:39:29;;;;;;;2.72;1.50;;;23.40;42.30;;;;;;5040744;28;20021;-62
2023/04/05 01:42:00;;;;;;;3.13;1.88;;;23.40;42.20;;;;;;5036325;28;20090;-62
2023/04/05 01:44:26;;;;;;;2.28;1.33;;;23.40;42.20;;;;;;5037156;28;20083;-62
2023/04/05 01:46:51;;;;;;;2.35;1.48;;;23.50;42.20;;;;;;5037618;28;20029;-62
2023/04/05 01:49:17;;;;;;;2.60;1.52;;;23.50;42.20;;;;;;5040892;28;20233;-62
2023/04/05 01:51:42;;;;;;;2.20;1.30;;;23.50;42.30;;;;;;5043315;28;20068;-62
2023/04/05 01:54:08;;;;;;;2.55;1.60;;;23.40;42.10;;;;;;5036418;28;20029;-62
2023/04/05 01:56:34;;;;;;;2.00;1.30;;;23.40;42.20;;;;;;5044345;28;20175;-62
2023/04/05 01:59:00;;;;;;;2.40;1.40;;;23.40;42.10;;;;;;5039442;28;20041;-62
2023/04/05 02:01:25;;;;;;;2.72;1.33;;;23.40;42.20;;;;;;5034351;28;20026;-62
2023/04/05 02:03:51;;;;;;;2.60;1.30;;;23.40;42.20;;;;;;5039417;28;20036;-62
2023/04/05 02:06:17;;;;;;;3.50;1.60;;;23.40;42.20;;;;;;5040763;28;20056;-62
2023/04/05 02:08:42;;;;;;;2.47;1.60;;;23.40;42.20;;;;;;5039355;28;20468;-62
2023/04/05 02:11:08;;;;;;;2.35;1.40;;;23.40;42.20;;;;;;5036480;28;20028;-62
2023/04/05 02:13:34;;;;;;;2.00;1.30;;;23.40;42.20;;;;;;5038509;28;20053;-62
2023/04/05 02:15:59;;;;;;;2.08;1.35;;;23.40;42.20;;;;;;5038838;28;20490;-62
2023/04/05 02:18:30;;;;;;;2.05;1.35;;;23.40;42.20;;;;;;5040180;28;20033;-62
2023/04/05 02:21:10;;;;;;;2.35;1.42;;;23.40;42.10;;;;;;5037110;28;20101;-62
2023/04/05 02:23:36;;;;;;;2.10;1.25;;;23.40;42.10;;;;;;5035569;28;20504;-61
2023/04/05 02:26:02;;;;;;;2.05;1.30;;;23.40;42.10;;;;;;5038756;28;20473;-62
2023/04/05 02:28:28;;;;;;;1.92;1.30;;;23.40;42.10;;;;;;5038573;28;20040;-62
2023/04/05 02:30:54;;;;;;;2.35;1.40;;;23.40;42.10;;;;;;5038860;28;20657;-62
2023/04/05 02:33:21;;;;;;;2.42;1.50;;;23.40;42.10;;;;;;5036193;28;20037;-62
2023/04/05 02:35:51;;;;;;;2.55;1.40;;;23.40;42.20;;;;;;5038804;28;20041;-62
2023/04/05 02:38:17;;;;;;;2.50;1.30;;;23.40;42.10;;;;;;5039704;28;20029;-63
2023/04/05 02:40:47;;;;;;;2.63;1.05;;;23.40;42.10;;;;;;5036251;28;20416;-62
2023/04/05 02:43:12;;;;;;;2.47;1.30;;;23.40;42.10;;;;;;5038176;28;20029;-62
2023/04/05 02:45:38;;;;;;;1.55;1.10;;;23.40;42.20;;;;;;5040757;28;20029;-62
2023/04/05 02:48:04;;;;;;;2.25;1.35;;;23.40;42.10;;;;;;5036880;28;20410;-62
2023/04/05 02:50:29;;;;;;;2.20;1.25;;;23.40;42.00;;;;;;5039961;28;20108;-62
2023/04/05 02:52:55;;;;;;;2.58;1.42;;;23.40;42.00;;;;;;5067026;28;20029;-62
2023/04/05 02:55:21;;;;;;;2.00;1.27;;;23.40;42.00;;;;;;5037456;28;20057;-62
2023/04/05 02:57:46;;;;;;;2.28;1.25;;;23.40;42.10;;;;;;5036671;28;20325;-61
2023/04/05 03:00:12;;;;;;;2.10;1.40;;;23.40;42.00;;;;;;5038275;28;20092;-62
2023/04/05 03:02:41;;;;;;;2.00;1.20;;;23.40;42.00;;;;;;5041074;28;20028;-62
2023/04/05 03:05:08;;;;;;;2.03;1.30;;;23.40;42.00;;;;;;5041324;28;20188;-62
2023/04/05 03:07:34;;;;;;;2.70;1.30;;;23.40;42.00;;;;;;5044076;28;20041;-62
2023/04/05 03:10:00;;;;;;;1.50;1.15;;;23.40;42.00;;;;;;5041106;28;20533;-62
2023/04/05 03:12:25;;;;;;;1.60;1.00;;;23.40;42.60;;;;;;5043665;28;20116;-62
2023/04/05 03:14:51;;;;;;;2.15;1.20;;;23.40;42.00;;;;;;5040527;28;20025;-63
2023/04/05 03:17:16;;;;;;;1.92;1.30;;;23.40;42.00;;;;;;5038818;28;20108;-62
2023/04/05 03:19:44;;;;;;;1.67;1.10;;;23.40;42.00;;;;;;5040790;28;20025;-63
2023/04/05 03:22:09;;;;;;;2.42;1.20;;;23.30;42.00;;;;;;5042393;28;20784;-62
2023/04/05 03:24:35;;;;;;;1.63;1.10;;;23.30;42.00;;;;;;5043241;28;20119;-62
2023/04/05 03:27:02;;;;;;;2.28;1.30;;;23.30;42.00;;;;;;5043932;28;20108;-63
2023/04/05 03:29:28;;;;;;;1.70;1.20;;;23.30;42.00;;;;;;5037125;28;20037;-62
2023/04/05 03:31:53;;;;;;;1.90;1.25;;;23.20;41.90;;;;;;5042187;28;20044;-62
2023/04/05 03:34:21;;;;;;;2.25;1.27;;;23.20;41.90;;;;;;5040428;28;20412;-62
2023/04/05 03:36:48;;;;;;;1.83;1.20;;;23.20;42.00;;;;;;5040482;28;20037;-62
2023/04/05 03:39:14;;;;;;;2.20;1.20;;;23.20;41.90;;;;;;5040661;28;20052;-63
2023/04/05 03:41:40;;;;;;;1.75;1.13;;;23.20;42.00;;;;;;5041609;28;20030;-62
2023/04/05 03:44:06;;;;;;;1.73;1.13;;;23.10;42.00;;;;;;5040525;28;20522;-62
2023/04/05 03:46:32;;;;;;;1.40;1.00;;;23.10;42.00;;;;;;5041805;28;20116;-62
2023/04/05 03:49:00;;;;;;;2.28;1.30;;;23.10;42.00;;;;;;5040225;28;20224;-63
2023/04/05 03:51:26;;;;;;;1.95;1.20;;;23.00;42.00;;;;;;5042455;28;20384;-62
2023/04/05 03:53:52;;;;;;;1.80;1.20;;;23.00;42.00;;;;;;5038830;28;20037;-63
2023/04/05 03:56:17;;;;;;;1.60;1.10;;;23.00;42.00;;;;;;5038000;28;20134;-63
2023/04/05 03:58:43;;;;;;;2.08;1.20;;;23.00;42.10;;;;;;5040188;28;20026;-62
2023/04/05 04:01:09;;;;;;;2.28;1.40;;;22.90;42.10;;;;;;5040884;28;20032;-63
2023/04/05 04:03:36;;;;;;;1.60;1.00;;;22.90;42.10;;;;;;5040609;28;20032;-63
2023/04/05 04:06:03;;;;;;;1.90;1.20;;;22.90;42.60;;;;;;5041414;28;20028;-63
2023/04/05 04:08:28;;;;;;;1.92;1.30;;;22.90;42.10;;;;;;5042106;28;20029;-62
2023/04/05 04:10:54;;;;;;;2.15;1.40;;;22.80;42.10;;;;;;5042438;28;20025;-63
2023/04/05 04:13:20;;;;;;;1.38;1.00;;;22.80;42.20;;;;;;5041320;28;20108;-63
2023/04/05 04:15:45;;;;;;;1.85;1.15;;;22.80;42.20;;;;;;5041004;28;20366;-63
2023/04/05 04:18:11;;;;;;;1.88;1.27;;;22.80;42.20;;;;;;5040928;28;20022;-62
2023/04/05 04:20:37;;;;;;;1.95;1.15;;;22.70;42.20;;;;;;5041090;28;20032;-62
2023/04/05 04:23:03;;;;;;;1.83;1.00;;;22.70;42.20;;;;;;5039651;28;20025;-62
2023/04/05 04:25:31;;;;;;;1.88;1.02;;;22.70;42.80;;;;;;5038086;28;20515;-62
2023/04/05 04:27:57;;;;;;;1.67;1.08;;;22.70;42.30;;;;;;5038882;28;20104;-62
2023/04/05 04:30:23;;;;;;;1.88;1.10;;;22.60;42.80;;;;;;5039637;28;20103;-63
2023/04/05 04:32:53;;;;;;;2.42;1.20;;;22.70;42.40;;;;;;5040539;28;20082;-62
2023/04/05 04:35:23;;;;;;;2.78;1.10;;;22.60;42.40;;;;;;5040361;28;20017;-63
2023/04/05 04:38:02;;;;;;;2.00;1.27;;;22.60;42.50;;;;;;5041052;28;20550;-62
2023/04/05 04:40:45;;;;;;;1.33;0.90;;;22.60;42.50;;;;;;5040810;28;20123;-61
2023/04/05 04:43:13;;;;;;;1.83;1.10;;;22.60;42.50;;;;;;5038558;28;20548;-60
2023/04/05 04:45:40;;;;;;;2.08;1.10;;;22.60;42.60;;;;;;5038243;28;20053;-61
2023/04/05 04:48:07;;;;;;;1.85;1.02;;;22.50;43.00;;;;;;5041622;28;20044;-60
2023/04/05 04:50:33;;;;;;;1.30;0.93;;;22.50;42.50;;;;;;5041538;28;20021;-62
2023/04/05 04:53:00;;;;;;;1.85;1.20;;;22.50;42.60;;;;;;5040364;28;20473;-61
2023/04/05 04:55:29;;;;;;;1.42;1.00;;;22.50;42.60;;;;;;5040807;28;20118;-61
2023/04/05 04:57:55;;;;;;;1.15;0.75;;;22.50;42.60;;;;;;5039222;28;20156;-61
2023/04/05 05:00:23;;;;;;;1.40;0.90;;;22.40;42.60;;;;;;5039189;28;20485;-61
2023/04/05 05:02:51;;;;;;;1.67;1.00;;;22.40;42.70;;;;;;5038291;28;20040;-61
2023/04/05 05:05:16;;;;;;;1.77;1.20;;;22.40;42.70;;;;;;5041724;28;20461;-61
2023/04/05 05:07:42;;;;;;;2.03;0.90;;;22.40;42.80;;;;;;5038584;28;20032;-61
2023/04/05 05:10:11;;;;;;;1.23;0.95;;;22.30;42.70;;;;;;5037863;28;20040;-61
2023/04/05 05:12:37;;;;;;;1.63;1.00;;;22.30;42.70;;;;;;5040775;28;20030;-61
2023/04/05 05:15:03;;;;;;;2.15;1.10;;;22.30;42.70;;;;;;5039770;28;20048;-62
2023/04/05 05:17:31;;;;;;;1.60;1.05;;;22.30;42.80;;;;;;5039683;28;20102;-62
2023/04/05 05:19:59;;;;;;;1.35;1.00;;;22.30;42.80;;;;;;5039866;28;20040;-62
2023/04/05 05:22:25;;;;;;;2.22;1.08;;;22.30;42.80;;;;;;5040834;28;20041;-62
2023/04/05 05:24:51;;;;;;;1.90;1.10;;;22.20;42.80;;;;;;5037101;28;20477;-62
2023/04/05 05:27:16;;;;;;;1.65;1.00;;;22.20;42.80;;;;;;5037070;28;20054;-62
2023/04/05 05:29:42;;;;;;;2.40;0.90;;;22.20;42.80;;;;;;5040757;28;20080;-61
2023/04/05 05:32:08;;;;;;;1.55;0.98;;;22.20;42.80;;;;;;5039956;28;20036;-62
2023/04/05 05:34:34;;;;;;;1.77;1.25;;;22.20;42.80;;;;;;5039893;28;20022;-61
2023/04/05 05:37:00;;;;;;;1.35;0.93;;;22.20;42.90;;;;;;5038993;28;20037;-61
2023/04/05 05:39:26;;;;;;;1.38;1.00;;;22.20;42.90;;;;;;5039010;28;20451;-62
2023/04/05 05:41:51;;;;;;;1.45;1.00;;;22.20;42.90;;;;;;5039307;28;20027;-62
2023/04/05 05:44:17;;;;;;;1.48;1.00;;;22.20;42.90;;;;;;5036775;28;20087;-62
2023/04/05 05:46:43;;;;;;;1.45;1.00;;;22.10;42.90;;;;;;5036358;28;20072;-61
2023/04/05 05:49:08;;;;;;;1.80;1.10;;;22.10;42.90;;;;;;5038753;28;20112;-62
2023/04/05 05:51:35;;;;;;;1.20;1.00;;;22.10;43.00;;;;;;5040299;28;20093;-61
2023/04/05 05:54:00;;;;;;;1.27;1.00;;;22.10;43.00;;;;;;5037313;28;20040;-61
2023/04/05 05:56:26;;;;;;;1.42;0.95;;;22.10;43.00;;;;;;5038948;28;20029;-61
2023/04/05 05:58:52;;;;;;;1.65;1.17;;;22.10;43.00;;;;;;5040050;28;20095;-61
2023/04/05 06:01:21;;;;;;;1.30;0.93;;;22.10;43.00;;;;;;5039115;28;20029;-61
2023/04/05 06:03:48;;;;;;;1.70;0.90;;;22.00;42.90;;;;;;5040538;28;20132;-62
2023/04/05 06:06:13;;;;;;;1.40;0.90;;;22.00;43.00;;;;;;5037168;28;20515;-61
2023/04/05 06:08:39;;;;;;;1.73;1.00;;;22.00;43.00;;;;;;5042284;28;20087;-62
2023/04/05 06:11:05;;;;;;;1.45;1.00;;;22.00;43.00;;;;;;5038102;28;20336;-61
2023/04/05 06:13:31;;;;;;;1.20;0.90;;;22.00;43.10;;;;;;5037107;28;20033;-62
2023/04/05 06:15:56;;;;;;;1.73;1.10;;;22.00;43.10;;;;;;5034490;28;20029;-61
2023/04/05 06:18:22;;;;;;;1.23;0.90;;;22.00;43.10;;;;;;5038313;28;20080;-61
2023/04/05 06:20:47;;;;;;;1.58;1.05;;;22.00;43.10;;;;;;5038712;28;20472;-62
2023/04/05 06:23:13;;;;;;;1.50;0.98;;;22.00;43.20;;;;;;5039088;28;20024;-61
2023/04/05 06:25:39;;;;;;;1.00;0.85;;;22.00;43.20;;;;;;5043505;28;20461;-62
2023/04/05 06:28:06;;;;;;;1.10;0.90;;;22.00;43.20;;;;;;5040969;28;20124;-61
2023/04/05 06:30:33;;;;;;;2.08;1.10;;;21.90;43.20;;;;;;5035204;28;20350;-61
2023/04/05 06:32:59;;;;;;;1.30;0.93;;;21.90;43.60;;;;;;5037625;28;20425;-62
2023/04/05 06:35:25;;;;;;;1.42;1.02;;;21.90;42.90;;;;;;5037712;28;20484;-62
2023/04/05 06:37:51;;;;;;;1.67;1.00;;;21.90;42.80;;;;;;5038048;28;20028;-62
2023/04/05 06:40:17;;;;;;;2.25;1.20;;;21.90;42.60;;;;;;5040000;28;20032;-62
2023/04/05 06:42:43;;;;;;;1.42;1.00;;;21.90;42.40;;;;;;5042861;28;20052;-62
2023/04/05 06:45:10;;;;;;;2.20;1.30;;;21.80;42.40;;;;;;5039895;28;20021;-62
2023/04/05 06:47:39;;;;;;;2.28;1.00;;;21.80;42.40;;;;;;5042908;28;20029;-62
2023/04/05 06:50:08;;;;;;;1.52;1.00;;;21.80;42.50;;;;;;5040536;28;20028;-62
2023/04/05 06:52:34;;;;;;;1.77;1.08;;;21.90;42.60;;;;;;5042920;28;20040;-62
2023/04/05 06:55:00;;;;;;;1.73;0.90;;;21.90;42.60;;;;;;5041392;28;20028;-62
2023/04/05 06:57:26;;;;;;;1.35;0.98;;;21.90;42.60;;;;;;5042863;28;20037;-62
2023/04/05 06:59:52;;;;;;;1.58;1.10;;;21.80;42.50;;;;;;5039356;28;20040;-62
2023/04/05 07:02:18;;;;;;;1.60;0.90;;;21.80;42.60;;;;;;5041364;28;20033;-62
2023/04/05 07:04:45;;;;;;;1.50;1.05;;;21.80;42.60;;;;;;5044338;28;20083;-62
2023/04/05 07:07:11;;;;;;;1.73;1.20;;;21.80;42.70;;;;;;5043521;28;20084;-62
2023/04/05 07:09:37;;;;;;;1.40;0.90;;;21.80;42.70;;;;;;5044055;28;20416;-62
2023/04/05 07:12:04;;;;;;;1.70;1.00;;;21.80;42.80;;;;;;5041291;28;20029;-62
2023/04/05 07:14:31;;;;;;;1.63;1.08;;;21.70;42.80;;;;;;5041579;28;20029;-61
2023/04/05 07:16:57;;;;;;;1.40;1.00;;;21.80;42.90;;;;;;5038912;28;20033;-63
2023/04/05 07:19:23;;;;;;;1.90;1.10;;;21.80;43.00;;;;;;5038290;28;20049;-62
2023/04/05 07:21:48;;;;;;;1.60;1.00;;;21.70;42.90;;;;;;5042662;28;20427;-62
2023/04/05 07:24:14;;;;;;;1.52;1.00;;;21.70;43.00;;;;;;5041611;28;20027;-62
2023/04/05 07:26:40;;;;;;;1.67;1.05;;;21.70;43.10;;;;;;5040485;28;20500;-62
2023/04/05 07:29:07;;;;;;;1.58;1.05;;;21.70;43.10;;;;;;5039212;28;20036;-62
2023/04/05 07:31:33;;;;;;;1.40;1.10;;;21.70;43.20;;;;;;5042181;28;20029;-62
2023/04/05 07:34:00;;;;;;;1.63;1.02;;;21.70;43.20;;;;;;5041889;28;20025;-62
2023/04/05 07:36:27;;;;;;;2.30;1.20;;;21.70;43.30;;;;;;5038859;28;20108;-62
2023/04/05 07:38:59;;;;;;;1.13;0.85;;;21.70;43.90;;;;;;5038094;28;20032;-61
2023/04/05 07:41:26;;;;;;;1.80;1.10;;;21.70;43.40;;;;;;5043945;28;20044;-62
2023/04/05 07:43:52;;;;;;;1.95;1.23;;;21.60;43.40;;;;;;5042132;28;20025;-62
2023/04/05 07:46:19;;;;;;;1.85;1.10;;;21.60;43.80;;;;;;5036841;28;20025;-62
2023/04/05 07:48:47;;;;;;;3.45;1.02;;;21.70;43.60;;;;;;5036646;28;20449;-62
2023/04/05 07:51:13;;;;;;;1.92;1.10;;;21.60;43.60;;;;;;5039839;28;20743;-61
2023/04/05 07:53:39;;;;;;;1.90;1.20;;;21.60;43.60;;;;;;5041930;28;20077;-62
2023/04/05 07:56:05;;;;;;;1.38;1.00;;;21.60;43.60;;;;;;5039467;28;20038;-62
2023/04/05 07:58:32;;;;;;;2.35;1.00;;;21.60;43.60;;;;;;5037127;28;20025;-62
2023/04/05 08:01:01;;;;;;;1.40;0.95;;;21.60;43.70;;;;;;5037056;28;20129;-62
2023/04/05 08:03:28;;;;;;;2.35;1.23;;;21.60;43.70;;;;;;5041105;28;20361;-62
2023/04/05 08:05:54;;;;;;;1.58;1.00;;;21.60;43.80;;;;;;5042338;28;20653;-62
2023/04/05 08:08:19;;;;;;;1.60;1.10;;;21.60;43.80;;;;;;5042851;28;20028;-62
2023/04/05 08:10:45;;;;;;;1.83;1.10;;;21.60;43.80;;;;;;5041503;28;20033;-62
2023/04/05 08:13:10;;;;;;;1.27;1.00;;;21.60;43.80;;;;;;5043165;28;20031;-62
2023/04/05 08:15:36;;;;;;;1.42;0.93;;;21.60;43.80;;;;;;5040386;28;20481;-62
2023/04/05 08:18:02;;;;;;;1.50;1.00;;;21.60;43.80;;;;;;5039616;28;20021;-62
2023/04/05 08:20:27;;;;;;;1.65;0.90;;;21.60;43.80;;;;;;5041429;28;20033;-62
2023/04/05 08:22:53;;;;;;;1.65;0.90;;;21.60;43.80;;;;;;5040293;28;20518;-62
2023/04/05 08:25:18;;;;;;;1.13;0.90;;;21.60;43.90;;;;;;5037172;28;20025;-62
2023/04/05 08:27:44;;;;;;;2.80;1.10;;;21.60;43.90;;;;;;5035039;28;20041;-63
2023/04/05 08:30:11;;;;;;;1.73;1.00;;;21.60;43.90;;;;;;5039088;28;20365;-63
2023/04/05 08:32:36;;;;;;;1.60;1.08;;;21.60;43.90;;;;;;5038748;28;20025;-63
2023/04/05 08:35:02;;;;;;;2.97;1.10;;;21.60;43.90;;;;;;5036597;28;20028;-63
2023/04/05 08:37:28;;;;;;;1.60;1.00;;;21.60;43.80;;;;;;5043632;28;20029;-63
2023/04/05 08:39:53;;;;;;;1.67;1.20;;;21.60;43.90;;;;;;5040201;28;20022;-63
2023/04/05 08:42:36;;;;;;;1.58;1.10;;;21.60;44.40;;;;;;5042147;28;20088;-63
2023/04/05 08:45:08;;;;;;;1.98;1.05;;;21.60;43.90;;;;;;5037232;28;20476;-62
2023/04/05 08:47:37;;;;;;;1.52;1.10;;;21.60;43.90;;;;;;5040232;28;20040;-63
2023/04/05 08:50:04;;;;;;;1.60;1.00;;;21.60;43.90;;;;;;5044808;28;20041;-63
2023/04/05 08:52:31;;;;;;;1.70;1.00;;;21.60;43.90;;;;;;5042844;28;20039;-63
2023/04/05 08:54:56;;;;;;;1.30;0.90;;;21.60;43.90;;;;;;5042733;28;20465;-59
2023/04/05 08:57:26;;;;;;;1.38;0.90;;;21.60;43.90;;;;;;5042683;28;20029;-62
2023/04/05 08:59:53;;;;;;;1.80;1.00;;;21.60;43.90;;;;;;5035533;28;20025;-62
2023/04/05 09:02:22;;;;;;;1.50;0.90;;;21.60;43.90;;;;;;5041024;28;20175;-63
2023/04/05 09:04:48;;;;;;;1.50;0.90;;;21.60;43.90;;;;;;5040492;28;20032;-63
2023/04/05 09:07:14;;;;;;;1.20;0.90;;;21.60;43.90;;;;;;5041282;28;20045;-63
2023/04/05 09:09:45;;;;;;;1.33;0.90;;;21.60;44.00;;;;;;5036087;28;20511;-62
2023/04/05 09:12:10;;;;;;;2.25;1.08;;;21.60;43.90;;;;;;5037697;28;20511;-62
2023/04/05 09:14:37;;;;;;;1.92;1.20;;;21.60;43.90;;;;;;5039054;28;20036;-63
2023/04/05 09:17:03;;;;;;;1.67;1.00;;;21.60;44.50;;;;;;5037705;28;20032;-62
2023/04/05 09:19:29;;;;;;;2.50;0.93;;;21.50;44.00;;;;;;5038755;28;20076;-63
2023/04/05 09:22:03;;;;;;;1.80;1.00;;;21.50;43.90;;;;;;5038505;28;20049;-63
2023/04/05 09:24:39;;;;;;;1.73;1.10;;;21.60;44.10;;;;;;5037714;28;20077;-62
2023/04/05 09:27:11;;;;;;;1.50;0.98;;;21.60;44.00;;;;;;5038063;28;20037;-63
2023/04/05 09:29:38;;;;;;;1.48;1.00;;;21.60;44.10;;;;;;5040233;28;20033;-63
2023/04/05 09:32:06;;;;;;;1.77;0.90;;;21.60;44.00;;;;;;5038530;28;20041;-63
2023/04/05 09:34:32;;;;;;;2.20;1.10;;;21.60;44.00;;;;;;5047017;28;20631;-63
2023/04/05 09:36:59;;;;;;;1.80;1.10;;;21.60;44.50;;;;;;5040527;28;20537;-62
2023/04/05 09:39:28;;;;;;;2.92;1.10;;;21.60;44.00;;;;;;5035062;28;20465;-62
2023/04/05 09:42:21;;;;;;;1.77;1.10;;;21.50;43.90;;;;;;5038099;28;20025;-63
2023/04/05 09:44:49;;;;;;;2.25;1.00;;;21.50;44.40;;;;;;5037583;28;20029;-63
2023/04/05 09:47:19;;;;;;;1.60;0.93;;;21.60;44.00;;;;;;5054091;28;20062;-63
2023/04/05 09:49:45;;;;;;;1.95;1.00;;;21.60;44.00;;;;;;5036473;28;20033;-62
2023/04/05 09:52:37;;;;;;;2.20;1.00;;;21.50;44.00;;;;;;5040628;28;20355;-63
2023/04/05 09:55:05;;;;;;;2.10;1.00;;;21.50;44.00;;;;;;5034744;28;20079;-63
2023/04/05 09:57:36;;;;;;;1.80;1.08;;;21.50;44.00;;;;;;5039826;28;20473;-63
2023/04/05 10:00:04;;;;;;;2.03;1.20;;;21.50;44.10;;;;;;5037091;28;20465;-63
2023/04/05 10:02:39;;;;;;;1.40;1.00;;;21.60;44.30;;;;;;5039003;28;20116;-62
2023/04/05 10:05:14;;;;;;;2.05;1.10;;;21.60;44.30;;;;;;5040446;28;20061;-63
2023/04/05 10:07:43;;;;;;;1.98;1.10;;;21.50;44.20;;;;;;5040426;28;20037;-63
2023/04/05 10:10:11;;;;;;;1.48;1.02;;;21.50;44.20;;;;;;5038891;28;20057;-63
2023/04/05 10:12:40;;;;;;;1.50;1.00;;;21.50;44.20;;;;;;5039972;28;20086;-63
2023/04/05 10:15:06;;;;;;;1.70;1.23;;;21.50;44.20;;;;;;5037760;28;20029;-63
2023/04/05 10:17:51;;;;;;;2.30;1.08;;;21.50;44.20;;;;;;5038290;28;20029;-62
2023/04/05 10:20:21;;;;;;;1.58;1.00;;;21.50;44.20;;;;;;5039093;28;20025;-63
2023/04/05 10:22:56;;;;;;;1.33;1.00;;;21.60;44.30;;;;;;5040732;28;20144;-62
2023/04/05 10:25:34;;;;;;;2.20;1.20;;;21.50;44.20;;;;;;5038733;28;20437;-63
2023/04/05 10:28:05;;;;;;;1.80;0.93;;;21.60;44.30;;;;;;5038630;28;20076;-63
2023/04/05 10:30:52;;;;;;;1.80;1.10;;;21.60;44.30;;;;;;5038127;28;20575;-63
2023/04/05 10:33:34;;;;;;;1.80;1.00;;;21.60;44.30;;;;;;5038165;28;20485;-63
2023/04/05 10:36:07;;;;;;;1.88;1.05;;;21.60;44.30;;;;;;5039002;28;20505;-63
2023/04/05 10:38:54;;;;;;;1.55;0.93;;;21.60;44.30;;;;;;5040353;28;20045;-63
2023/04/05 10:41:20;;;;;;;1.67;1.00;;;21.60;44.30;;;;;;5037500;28;20047;-63
2023/04/05 10:43:49;;;;;;;1.50;0.98;;;21.60;44.30;;;;;;5037256;28;20033;-63
2023/04/05 10:46:19;;;;;;;1.52;1.08;;;21.50;44.30;;;;;;5037076;28;20035;-63
2023/04/05 10:49:04;;;;;;;1.60;0.90;;;21.60;44.40;;;;;;5038592;28;20108;-63
2023/04/05 10:51:32;;;;;;;1.63;1.00;;;21.60;44.40;;;;;;5038749;28;20497;-63
2023/04/05 10:53:59;;;;;;;1.48;0.90;;;21.60;44.40;;;;;;5037895;28;20477;-62
2023/04/05 10:56:26;;;;;;;3.22;1.00;;;21.60;44.90;;;;;;5039611;28;20033;-63
2023/04/05 10:58:54;;;;;;;1.40;0.90;;;21.60;44.70;;;;;;5040823;28;20033;-63
2023/04/05 11:01:21;;;;;;;1.48;0.90;;;21.60;44.70;;;;;;5037892;28;20029;-63
2023/04/05 11:03:48;;;;;;;1.63;1.10;;;21.60;44.90;;;;;;5039322;28;20121;-63
2023/04/05 11:06:34;;;;;;;4.40;1.10;;;21.60;45.20;;;;;;5036274;28;20048;-63
2023/04/05 11:09:33;;;;;;;2.25;1.10;;;21.60;45.20;;;;;;5040347;28;20522;-64
2023/04/05 11:11:58;;;;;;;2.08;1.20;;;21.60;45.10;;;;;;5003607;28;20065;-63
2023/04/05 11:14:24;;;;;;;1.90;1.10;;;21.60;45.00;;;;;;5037955;28;20061;-63
2023/04/05 11:16:58;;;;;;;1.98;1.10;;;21.60;45.00;;;;;;5036836;28;20033;-63
2023/04/05 11:19:42;;;;;;;1.80;1.00;;;21.60;44.90;;;;;;5037490;28;20018;-64
2023/04/05 11:22:12;;;;;;;1.58;1.00;;;21.70;45.00;;;;;;5038352;28;20025;-63
2023/04/05 11:24:56;;;;;;;1.60;1.10;;;21.60;44.80;;;;;;5039495;28;20070;-63
2023/04/05 11:27:35;;;;;;;1.90;1.10;;;21.70;44.80;;;;;;5040657;28;20053;-62
2023/04/05 11:30:03;;;;;;;2.40;1.33;;;21.70;44.80;;;;;;5040854;28;20033;-63
2023/04/05 11:32:42;;;;;;;1.38;0.98;;;21.60;44.80;;;;;;5042145;28;20076;-64
2023/04/05 11:35:12;;;;;;;;;;;21.70;44.90;;;;;;5043304;28;20036;-63
2023/04/05 11:37:59;;;;;;;2.22;0.93;;;21.60;44.70;;;;;;5042330;28;19958;-63
2023/04/05 11:40:36;;;;;;;1.48;0.95;;;21.70;44.60;;;;;;5041924;28;20037;-63
2023/04/05 11:43:08;;;;;;;1.95;1.00;;;21.70;44.70;;;;;;5039885;28;20415;-64
2023/04/05 11:45:36;;;;;;;2.55;1.00;;;21.70;44.60;;;;;;5042817;28;20052;-64
2023/04/05 11:48:10;;;;;;;1.52;1.00;;;21.70;44.50;;;;;;5043458;28;20045;-63
2023/04/05 11:50:37;;;;;;;2.60;1.30;;;21.70;44.40;;;;;;5039327;28;20052;-64
2023/04/05 11:53:18;;;;;;;1.95;0.95;;;21.70;44.80;;;;;;5041088;28;20033;-63
2023/04/05 11:55:52;;;;;;;1.77;1.08;;;21.70;44.20;;;;;;5040966;28;20029;-64
2023/04/05 11:58:27;;;;;;;1.55;0.95;;;21.70;44.20;;;;;;5038878;28;20030;-64
2023/04/05 12:01:01;;;;;;;1.80;1.10;;;21.70;44.20;;;;;;5039952;28;20061;-64
2023/04/05 12:03:27;;;;;;;1.73;0.80;;;21.70;44.20;;;;;;5042535;28;20072;-64
2023/04/05 12:05:55;;;;;;;2.08;1.00;;;21.80;44.30;;;;;;5042918;28;20424;-63
2023/04/05 12:08:21;;;;;;;2.67;1.27;;;21.80;44.70;;;;;;5042278;28;20121;-64
2023/04/05 12:10:57;;;;;;;2.10;1.10;;;21.80;44.20;;;;;;5041411;28;20028;-64
2023/04/05 12:13:28;;;;;;;2.08;1.00;;;21.70;44.10;;;;;;5040101;28;20041;-64
2023/04/05 12:16:00;;;;;;;1.40;0.90;;;21.70;44.10;;;;;;5044875;28;20426;-64
2023/04/05 12:18:27;;;;;;;2.20;1.08;;;21.80;44.20;;;;;;5042317;28;20080;-64
2023/04/05 12:20:53;;;;;;;1.83;1.00;;;21.80;44.20;;;;;;5044475;28;20062;-63
2023/04/05 12:23:20;;;;;;;2.03;1.00;;;21.80;44.20;;;;;;5041014;28;20108;-64
2023/04/05 12:25:50;;;;;;;1.52;1.02;;;21.80;44.20;;;;;;5043641;28;20536;-63
2023/04/05 12:28:16;;;;;;;2.08;1.00;;;21.80;44.20;;;;;;5043671;28;20612;-63
2023/04/05 12:30:57;;;;;;;1.63;0.95;;;21.80;44.20;;;;;;5041605;28;20028;-63
2023/04/05 12:33:27;;;;;;;1.48;0.93;;;21.80;44.10;;;;;;5040238;28;20113;-65
2023/04/05 12:35:53;;;;;;;1.70;1.00;;;21.80;44.10;;;;;;5040339;28;20059;-63
2023/04/05 12:38:18;;;;;;;1.63;0.90;;;21.80;44.10;;;;;;5041554;28;20489;-64
2023/04/05 12:40:44;;;;;;;1.52;1.00;;;21.80;44.10;;;;;;5040951;28;20534;-63
2023/04/05 12:43:11;;;;;;;1.50;1.00;;;21.80;44.10;;;;;;5040014;28;20049;-64
2023/04/05 12:45:40;;;;;;;1.40;0.90;;;21.80;44.60;;;;;;5038814;28;20048;-64
2023/04/05 12:48:21;;;;;;;1.60;0.90;;;21.80;44.10;;;;;;5038471;28;20022;-63
2023/04/05 12:50:47;;;;;;;1.88;1.05;;;21.80;44.10;;;;;;5041057;28;20029;-63
2023/04/05 12:53:19;;;;;;;1.73;1.02;;;21.80;44.10;;;;;;5043430;28;20052;-63
2023/04/05 12:55:49;;;;;;;2.22;1.20;;;21.80;44.10;;;;;;5041220;28;20032;-63